createdAt,value
2022-12-03T00:02:16.907Z,-14.11
2022-12-03T00:04:43.709Z,-14.18
2022-12-03T00:07:10.485Z,-14.33
2022-12-03T00:09:37.251Z,-14.23
2022-12-03T00:12:04.020Z,-14.27
2022-12-03T00:14:30.828Z,-14.12
2022-12-03T00:17:06.012Z,-14.31
2022-12-03T00:19:32.714Z,-14.32
2022-12-03T00:21:59.520Z,-14.27
2022-12-03T00:24:26.222Z,-14.37
2022-12-03T00:26:52.946Z,-14.28
2022-12-03T00:29:19.679Z,-14.36
2022-12-03T00:31:46.477Z,-14.33
2022-12-03T00:34:13.243Z,-14.29
2022-12-03T00:36:39.971Z,-14.27
2022-12-03T00:39:06.837Z,-14.27
2022-12-03T00:41:33.647Z,-14.39
2022-12-03T00:44:00.852Z,-14.27
2022-12-03T00:46:27.853Z,-14.25
2022-12-03T00:48:54.617Z,-14.45
2022-12-03T00:51:21.370Z,-14.44
2022-12-03T00:53:48.233Z,-14.42
2022-12-03T00:56:14.975Z,-14.54
2022-12-03T00:58:41.681Z,-14.46
2022-12-03T01:01:08.413Z,-14.49
2022-12-03T01:03:35.489Z,-14.47
2022-12-03T01:06:02.225Z,-14.55
2022-12-03T01:08:28.970Z,-14.49
2022-12-03T01:10:55.701Z,-14.62
2022-12-03T01:13:22.451Z,-14.47
2022-12-03T01:15:49.400Z,-14.60
2022-12-03T01:18:16.222Z,-14.59
2022-12-03T01:20:43.066Z,-14.61
2022-12-03T01:23:09.826Z,-14.41
2022-12-03T01:25:36.534Z,-14.57
2022-12-03T01:28:03.384Z,-14.60
2022-12-03T01:30:50.132Z,-14.57
2022-12-03T01:33:16.908Z,-14.57
2022-12-03T01:35:43.740Z,-14.61
2022-12-03T01:38:10.494Z,-14.70
2022-12-03T01:40:37.315Z,-14.61
2022-12-03T01:43:04.108Z,-14.71
2022-12-03T01:45:30.983Z,-14.42
2022-12-03T01:47:57.731Z,-14.43
2022-12-03T01:50:31.714Z,-14.59
2022-12-03T01:53:01.718Z,-14.68
2022-12-03T01:55:28.747Z,-14.73
2022-12-03T01:58:26.054Z,-14.68
2022-12-03T02:00:51.029Z,-14.61
2022-12-03T02:03:22.692Z,-14.76
2022-12-03T02:05:49.629Z,-14.78
2022-12-03T02:08:30.857Z,-14.77
2022-12-03T02:11:35.297Z,-14.73
2022-12-03T02:14:05.517Z,-14.79
2022-12-03T02:16:34.489Z,-14.81
2022-12-03T02:19:01.914Z,-14.84
2022-12-03T02:21:37.715Z,-14.72
2022-12-03T02:24:48.801Z,-14.73
2022-12-03T02:27:15.593Z,-14.73
2022-12-03T02:29:42.398Z,-14.76
2022-12-03T02:32:09.160Z,-14.71
2022-12-03T02:34:37.257Z,-14.75
2022-12-03T02:37:05.964Z,-14.87
2022-12-03T02:39:33.981Z,-14.71
2022-12-03T02:42:19.408Z,-15.00
2022-12-03T02:44:46.129Z,-14.93
2022-12-03T02:47:13.178Z,-14.90
2022-12-03T02:49:40.634Z,-14.81
2022-12-03T02:52:07.559Z,-14.79
2022-12-03T02:54:34.726Z,-14.98
2022-12-03T02:57:01.895Z,-15.03
2022-12-03T02:59:28.712Z,-14.87
2022-12-03T03:01:55.649Z,-14.95
2022-12-03T03:04:24.890Z,-14.99
2022-12-03T03:06:52.468Z,-15.01
2022-12-03T03:09:20.696Z,-15.00
2022-12-03T03:11:47.405Z,-14.93
2022-12-03T03:14:14.442Z,-15.07
2022-12-03T03:16:41.455Z,-14.99
2022-12-03T03:19:08.691Z,-14.97
2022-12-03T03:21:35.466Z,-15.12
2022-12-03T03:24:02.325Z,-14.94
2022-12-03T03:26:29.090Z,-15.03
2022-12-03T03:28:57.620Z,-15.09
2022-12-03T03:31:24.613Z,-15.09
2022-12-03T03:33:51.998Z,-14.99
2022-12-03T03:36:20.215Z,-15.10
2022-12-03T03:38:47.788Z,-14.97
2022-12-03T03:41:15.530Z,-15.05
2022-12-03T03:43:45.054Z,-15.16
2022-12-03T03:46:12.485Z,-15.23
2022-12-03T03:48:41.525Z,-14.97
2022-12-03T03:51:09.760Z,-15.12
2022-12-03T03:53:43.025Z,-15.18
2022-12-03T03:56:10.746Z,-15.18
2022-12-03T03:58:38.214Z,-15.03
2022-12-03T04:01:05.124Z,-15.17
2022-12-03T04:03:31.887Z,-15.20
2022-12-03T04:05:58.777Z,-15.10
2022-12-03T04:08:25.573Z,-15.03
2022-12-03T04:11:11.174Z,-15.15
2022-12-03T04:13:37.996Z,-15.15
2022-12-03T04:16:04.958Z,-15.18
2022-12-03T04:18:43.685Z,-15.19
2022-12-03T04:21:32.781Z,-15.38
2022-12-03T04:23:59.724Z,-15.17
2022-12-03T04:26:45.322Z,-15.12
2022-12-03T04:29:12.584Z,-15.13
2022-12-03T04:31:58.609Z,-15.07
2022-12-03T04:34:44.061Z,-15.10
2022-12-03T04:37:11.431Z,-15.06
2022-12-03T04:39:38.225Z,-15.06
2022-12-03T04:42:06.137Z,-15.13
2022-12-03T04:44:33.745Z,-15.01
2022-12-03T04:47:10.358Z,-14.92
2022-12-03T04:49:40.240Z,-15.11
2022-12-03T04:52:07.328Z,-15.08
2022-12-03T04:54:34.753Z,-14.96
2022-12-03T04:57:01.794Z,-15.02
2022-12-03T04:59:28.669Z,-14.96
2022-12-03T05:01:55.609Z,-15.08
2022-12-03T05:04:22.810Z,-14.89
2022-12-03T05:06:49.742Z,-14.88
2022-12-03T05:09:16.676Z,-14.91
2022-12-03T05:11:43.764Z,-14.94
2022-12-03T05:14:11.186Z,-14.81
2022-12-03T05:16:38.742Z,-14.92
2022-12-03T05:19:07.256Z,-14.75
2022-12-03T05:21:34.617Z,-14.76
2022-12-03T05:24:01.377Z,-14.99
2022-12-03T05:26:28.159Z,-15.04
2022-12-03T05:28:55.018Z,-14.88
2022-12-03T05:31:21.816Z,-14.78
2022-12-03T05:33:48.830Z,-14.85
2022-12-03T05:36:15.871Z,-14.89
2022-12-03T05:38:42.660Z,-14.78
2022-12-03T05:41:28.070Z,-14.64
2022-12-03T05:43:54.958Z,-14.63
2022-12-03T05:46:21.759Z,-14.49
2022-12-03T05:48:48.697Z,-14.56
2022-12-03T05:51:15.492Z,-14.57
2022-12-03T05:53:42.261Z,-14.62
2022-12-03T05:56:09.048Z,-14.68
2022-12-03T05:58:35.930Z,-14.37
2022-12-03T06:01:02.737Z,-14.37
2022-12-03T06:03:29.647Z,-14.48
2022-12-03T06:05:56.429Z,-14.36
2022-12-03T06:08:23.186Z,-14.32
2022-12-03T06:11:02.960Z,-14.41
2022-12-03T06:13:29.736Z,-14.34
2022-12-03T06:15:56.554Z,-14.33
2022-12-03T06:18:23.410Z,-14.13
2022-12-03T06:20:50.137Z,-14.16
2022-12-03T06:23:16.888Z,-14.03
2022-12-03T06:25:43.585Z,-13.88
2022-12-03T06:28:10.330Z,-13.86
2022-12-03T06:30:37.111Z,-13.81
2022-12-03T06:33:03.967Z,-13.62
2022-12-03T06:35:32.001Z,-13.61
2022-12-03T06:37:58.873Z,-13.58
2022-12-03T06:40:25.708Z,-13.55
2022-12-03T06:42:52.755Z,-13.48
2022-12-03T06:45:19.670Z,-13.58
2022-12-03T06:47:46.563Z,-13.48
2022-12-03T06:50:13.902Z,-13.58
2022-12-03T06:52:40.678Z,-13.49
2022-12-03T06:55:07.984Z,-13.42
2022-12-03T06:57:34.823Z,-13.31
2022-12-03T07:00:02.323Z,-13.43
2022-12-03T07:02:30.585Z,-13.43
2022-12-03T07:04:57.598Z,-13.28
2022-12-03T07:07:24.804Z,-13.38
2022-12-03T07:09:51.596Z,-13.26
2022-12-03T07:12:18.408Z,-13.10
2022-12-03T07:14:45.231Z,-13.11
2022-12-03T07:17:11.932Z,-12.96
2022-12-03T07:19:38.798Z,-12.98
2022-12-03T07:22:05.735Z,-12.92
2022-12-03T07:24:32.709Z,-12.95
2022-12-03T07:26:59.508Z,-12.85
2022-12-03T07:29:26.224Z,-12.70
2022-12-03T07:31:53.117Z,-12.68
2022-12-03T07:34:19.849Z,-12.79
2022-12-03T07:36:46.641Z,-12.71
2022-12-03T07:39:13.881Z,-12.74
2022-12-03T07:41:40.598Z,-12.64
2022-12-03T07:44:12.541Z,-12.44
2022-12-03T07:46:53.927Z,-12.50
2022-12-03T07:49:20.693Z,-12.35
2022-12-03T07:51:54.047Z,-12.17
2022-12-03T07:54:21.666Z,-12.16
2022-12-03T07:56:48.448Z,-12.35
2022-12-03T07:59:16.369Z,-12.37
2022-12-03T08:01:43.435Z,-12.27
2022-12-03T08:04:11.469Z,-12.18
2022-12-03T08:06:38.370Z,-12.02
2022-12-03T08:09:05.167Z,-12.06
2022-12-03T08:11:33.097Z,-11.86
2022-12-03T08:13:59.919Z,-11.70
2022-12-03T08:16:26.779Z,-11.81
2022-12-03T08:18:57.702Z,-11.83
2022-12-03T08:21:24.489Z,-11.61
2022-12-03T08:23:51.235Z,-11.72
2022-12-03T08:26:28.187Z,-11.65
2022-12-03T08:28:54.916Z,-11.57
2022-12-03T08:31:32.507Z,-11.28
2022-12-03T08:34:13.965Z,-11.57
2022-12-03T08:36:40.669Z,-11.50
2022-12-03T08:39:25.797Z,-11.39
2022-12-03T08:42:40.936Z,-11.59
2022-12-03T08:45:29.212Z,-11.19
2022-12-03T08:47:57.853Z,-11.31
2022-12-03T08:50:34.384Z,-11.27
2022-12-03T08:53:15.458Z,-11.12
2022-12-03T08:55:53.058Z,-11.09
2022-12-03T08:58:22.855Z,-11.04
2022-12-03T09:01:07.302Z,-10.90
2022-12-03T09:03:34.459Z,-10.84
2022-12-03T09:06:01.231Z,-10.93
2022-12-03T09:08:28.030Z,-10.87
2022-12-03T09:10:54.862Z,-10.88
2022-12-03T09:13:21.657Z,-10.76
2022-12-03T09:15:48.517Z,-10.71
2022-12-03T09:18:16.253Z,-10.66
2022-12-03T09:20:42.981Z,-10.63
2022-12-03T09:23:09.893Z,-10.52
2022-12-03T09:25:36.687Z,-10.61
2022-12-03T09:28:03.472Z,-10.54
2022-12-03T09:30:30.283Z,-10.39
2022-12-03T09:33:02.866Z,-10.48
2022-12-03T09:35:29.601Z,-10.29
2022-12-03T09:37:56.457Z,-10.11
2022-12-03T09:40:23.550Z,-10.25
2022-12-03T09:42:51.386Z,-10.14
2022-12-03T09:45:18.412Z,-10.01
2022-12-03T09:47:48.012Z,-9.71
2022-12-03T09:50:19.140Z,-9.96
2022-12-03T09:52:47.034Z,-10.04
2022-12-03T09:55:17.636Z,-10.01
2022-12-03T09:57:44.662Z,-9.93
2022-12-03T10:00:18.875Z,-10.04
2022-12-03T10:02:46.965Z,-9.79
2022-12-03T10:05:14.712Z,-9.79
2022-12-03T10:07:42.601Z,-9.81
2022-12-03T10:10:18.335Z,-9.66
2022-12-03T10:12:45.746Z,-9.65
2022-12-03T10:15:18.212Z,-9.44
2022-12-03T10:17:47.832Z,-9.49
2022-12-03T10:20:17.173Z,-9.44
2022-12-03T10:25:24.690Z,-9.41
2022-12-03T10:28:02.806Z,-9.49
2022-12-03T10:30:29.948Z,-9.46
2022-12-03T10:32:58.595Z,-9.58
2022-12-03T10:35:57.924Z,-9.41
2022-12-03T10:38:38.068Z,-9.47
2022-12-03T10:41:21.695Z,-9.41
2022-12-03T10:43:48.523Z,-9.28
2022-12-03T10:46:19.107Z,-9.25
2022-12-03T10:48:46.382Z,-9.30
2022-12-03T10:54:27.569Z,-9.35
2022-12-03T10:56:54.508Z,-9.38
2022-12-03T10:59:28.284Z,-9.24
2022-12-03T11:01:55.092Z,-9.21
2022-12-03T11:04:27.846Z,-9.11
2022-12-03T11:06:55.416Z,-9.27
2022-12-03T11:09:27.009Z,-9.30
2022-12-03T11:11:54.533Z,-9.16
2022-12-03T11:14:49.027Z,-9.14
2022-12-03T11:17:51.773Z,-9.23
2022-12-03T11:20:24.502Z,-9.29
2022-12-03T11:22:55.820Z,-9.14
2022-12-03T11:25:25.840Z,-9.37
2022-12-03T11:28:10.595Z,-9.26
2022-12-03T11:30:49.773Z,-9.20
2022-12-03T11:33:26.985Z,-9.17
2022-12-03T11:36:05.677Z,-9.11
2022-12-03T11:38:41.500Z,-9.13
2022-12-03T11:41:17.324Z,-9.26
2022-12-03T11:43:53.283Z,-9.16
2022-12-03T11:46:25.779Z,-9.04
2022-12-03T11:48:54.658Z,-9.10
2022-12-03T11:51:27.014Z,-9.11
2022-12-03T11:53:56.819Z,-9.08
2022-12-03T11:56:29.371Z,-9.02
2022-12-03T11:59:01.355Z,-9.00
2022-12-03T12:01:39.580Z,-9.08
2022-12-03T12:04:08.183Z,-9.02
2022-12-03T12:06:48.703Z,-9.04
2022-12-03T12:09:57.133Z,-9.00
2022-12-03T12:12:54.384Z,-8.94
2022-12-03T12:15:40.015Z,-8.91
2022-12-03T12:18:40.014Z,-8.94
2022-12-03T12:21:41.503Z,-8.97
2022-12-03T12:24:40.250Z,-8.96
2022-12-03T12:27:10.825Z,-8.88
2022-12-03T12:29:40.144Z,-8.86
2022-12-03T12:32:10.277Z,-8.84
2022-12-03T12:34:39.260Z,-8.80
2022-12-03T12:37:10.057Z,-8.87
2022-12-03T12:39:37.090Z,-8.89
2022-12-03T12:42:29.143Z,-8.69
2022-12-03T12:45:08.744Z,-8.82
2022-12-03T12:47:36.764Z,-8.76
2022-12-03T12:50:10.852Z,-8.74
2022-12-03T12:52:48.544Z,-8.75
2022-12-03T12:55:16.656Z,-8.66
2022-12-03T12:57:44.068Z,-8.75
2022-12-03T13:00:28.859Z,-8.70
2022-12-03T13:03:01.430Z,-8.64
2022-12-03T13:05:45.705Z,-8.69
2022-12-03T13:08:31.943Z,-8.67
2022-12-03T13:11:00.915Z,-8.63
2022-12-03T13:13:30.567Z,-8.64
2022-12-03T13:16:20.417Z,-8.58
2022-12-03T13:18:55.589Z,-8.60
2022-12-03T13:21:40.399Z,-8.61
2022-12-03T13:24:41.129Z,-8.63
2022-12-03T13:27:19.828Z,-8.58
2022-12-03T13:29:50.915Z,-8.55
2022-12-03T13:32:27.936Z,-8.57
2022-12-03T13:35:01.054Z,-8.57
2022-12-03T13:37:28.453Z,-8.52
2022-12-03T13:39:57.529Z,-8.53
2022-12-03T13:42:39.065Z,-8.49
2022-12-03T13:45:17.479Z,-8.53
2022-12-03T13:47:50.250Z,-8.48
2022-12-03T13:50:40.798Z,-8.49
2022-12-03T13:53:19.610Z,-8.43
2022-12-03T13:55:48.773Z,-8.37
2022-12-03T13:58:15.629Z,-8.49
2022-12-03T14:00:43.129Z,-8.46
2022-12-03T14:03:10.015Z,-8.37
2022-12-03T14:05:36.833Z,-8.50
2022-12-03T14:08:03.797Z,-8.45
2022-12-03T14:10:31.065Z,-8.40
2022-12-03T14:15:38.702Z,-8.38
2022-12-03T14:18:14.985Z,-8.39
2022-12-03T14:20:41.842Z,-8.33
2022-12-03T14:23:08.625Z,-8.31
2022-12-03T14:25:35.349Z,-8.25
2022-12-03T14:28:02.162Z,-8.32
2022-12-03T14:30:28.918Z,-8.28
2022-12-03T14:32:55.669Z,-8.28
2022-12-03T14:35:22.744Z,-8.26
2022-12-03T14:37:49.517Z,-8.27
2022-12-03T14:40:21.160Z,-8.32
2022-12-03T14:42:48.375Z,-8.26
2022-12-03T14:45:15.344Z,-8.27
2022-12-03T14:47:44.961Z,-8.17
2022-12-03T14:50:14.565Z,-8.21
2022-12-03T14:52:41.740Z,-8.19
2022-12-03T14:55:08.950Z,-8.23
2022-12-03T14:57:35.682Z,-8.19
2022-12-03T15:00:02.442Z,-8.20
2022-12-03T15:02:30.444Z,-8.19
2022-12-03T15:04:57.343Z,-8.15
2022-12-03T15:07:24.059Z,-8.25
2022-12-03T15:09:50.857Z,-8.22
2022-12-03T15:12:17.643Z,-8.22
2022-12-03T15:14:44.490Z,-8.15
2022-12-03T15:17:11.476Z,-8.05
2022-12-03T15:19:38.251Z,-8.18
2022-12-03T15:22:04.976Z,-8.11
2022-12-03T15:24:31.765Z,-8.12
2022-12-03T15:26:58.568Z,-8.14
2022-12-03T15:29:25.460Z,-8.14
2022-12-03T15:31:52.313Z,-8.18
2022-12-03T15:34:22.904Z,-8.20
2022-12-03T15:36:50.512Z,-8.13
2022-12-03T15:39:17.299Z,-8.11
2022-12-03T15:41:44.041Z,-8.13
2022-12-03T15:44:10.828Z,-8.09
2022-12-03T15:46:37.581Z,-8.13
2022-12-03T15:49:04.501Z,-8.08
2022-12-03T15:51:31.367Z,-8.04
2022-12-03T15:53:58.089Z,-8.07
2022-12-03T15:56:24.865Z,-8.06
2022-12-03T15:58:51.649Z,-8.01
2022-12-03T16:01:18.647Z,-8.00
2022-12-03T16:03:45.645Z,-7.95
2022-12-03T16:06:12.858Z,-8.03
2022-12-03T16:08:39.683Z,-8.09
2022-12-03T16:11:06.454Z,-8.04
2022-12-03T16:13:33.396Z,-7.99
2022-12-03T16:16:00.313Z,-7.96
2022-12-03T16:18:27.187Z,-7.93
2022-12-03T16:20:53.887Z,-7.93
2022-12-03T16:23:20.637Z,-7.99
2022-12-03T16:25:47.392Z,-8.03
2022-12-03T16:28:14.192Z,-8.05
2022-12-03T16:30:41.137Z,-8.07
2022-12-03T16:33:07.916Z,-8.05
2022-12-03T16:35:34.732Z,-8.00
2022-12-03T16:38:01.452Z,-8.18
2022-12-03T16:40:28.231Z,-8.23
2022-12-03T16:42:55.002Z,-8.11
2022-12-03T16:45:21.718Z,-8.20
2022-12-03T16:47:49.650Z,-8.26
2022-12-03T16:50:24.444Z,-8.18
2022-12-03T16:52:54.570Z,-8.25
2022-12-03T16:55:21.337Z,-8.29
2022-12-03T16:57:48.147Z,-8.23
2022-12-03T17:00:15.458Z,-8.37
2022-12-03T17:02:42.371Z,-8.47
2022-12-03T17:05:09.188Z,-8.49
2022-12-03T17:07:36.039Z,-8.51
2022-12-03T17:10:02.826Z,-8.50
2022-12-03T17:12:54.105Z,-8.63
2022-12-03T17:15:17.228Z,-8.56
2022-12-03T17:17:43.952Z,-8.73
2022-12-03T17:20:12.640Z,-8.74
2022-12-03T17:22:39.438Z,-8.67
2022-12-03T17:25:06.547Z,-8.60
2022-12-03T17:27:33.357Z,-8.75
2022-12-03T17:30:00.344Z,-8.71
2022-12-03T17:32:27.381Z,-8.72
2022-12-03T17:34:54.128Z,-8.64
2022-12-03T17:37:20.922Z,-8.68
2022-12-03T17:39:47.839Z,-8.83
2022-12-03T17:42:14.554Z,-8.87
2022-12-03T17:44:41.409Z,-8.77
2022-12-03T17:47:08.200Z,-8.68
2022-12-03T17:49:35.050Z,-8.72
2022-12-03T17:52:01.814Z,-8.65
2022-12-03T17:54:48.961Z,-8.71
2022-12-03T17:57:15.362Z,-8.76
2022-12-03T17:59:42.121Z,-8.73
2022-12-03T18:02:08.929Z,-8.61
2022-12-03T18:04:35.695Z,-8.71
2022-12-03T18:07:02.814Z,-8.81
2022-12-03T18:09:29.660Z,-8.63
2022-12-03T18:11:56.537Z,-8.70
2022-12-03T18:14:23.388Z,-8.76
2022-12-03T18:16:50.128Z,-8.67
2022-12-03T18:19:16.982Z,-8.68
2022-12-03T18:21:43.671Z,-8.67
2022-12-03T18:24:10.580Z,-8.74
2022-12-03T18:26:37.410Z,-8.70
2022-12-03T18:29:04.246Z,-8.69
2022-12-03T18:31:31.043Z,-8.75
2022-12-03T18:33:57.892Z,-8.69
2022-12-03T18:36:33.664Z,-8.80
2022-12-03T18:39:01.157Z,-8.70
2022-12-03T18:41:28.072Z,-8.81
2022-12-03T18:43:55.358Z,-8.78
2022-12-03T18:46:51.587Z,-8.85
2022-12-03T18:49:10.511Z,-8.75
2022-12-03T18:51:37.735Z,-8.80
2022-12-03T18:54:06.261Z,-8.78
2022-12-03T18:56:33.039Z,-8.87
2022-12-03T18:58:59.771Z,-8.76
2022-12-03T19:01:26.655Z,-8.73
2022-12-03T19:03:53.775Z,-8.82
2022-12-03T19:06:21.514Z,-8.75
2022-12-03T19:08:49.678Z,-8.68
2022-12-03T19:11:16.480Z,-8.75
2022-12-03T19:13:43.335Z,-8.83
2022-12-03T19:16:10.786Z,-8.84
2022-12-03T19:18:38.072Z,-8.83
2022-12-03T19:21:10.366Z,-8.81
2022-12-03T19:23:37.529Z,-8.77
2022-12-03T19:26:07.195Z,-8.75
2022-12-03T19:28:34.533Z,-8.82
2022-12-03T19:31:11.830Z,-8.86
2022-12-03T19:33:38.632Z,-8.88
2022-12-03T19:36:13.444Z,-8.75
2022-12-03T19:38:40.218Z,-8.86
2022-12-03T19:41:09.162Z,-8.80
2022-12-03T19:43:36.731Z,-8.97
2022-12-03T19:46:06.219Z,-8.91
2022-12-03T19:48:34.642Z,-8.97
2022-12-03T19:51:26.574Z,-8.95
2022-12-03T19:53:49.246Z,-8.95
2022-12-03T19:56:18.655Z,-9.03
2022-12-03T19:58:46.793Z,-8.99
2022-12-03T20:01:19.442Z,-9.06
2022-12-03T20:03:49.504Z,-8.93
2022-12-03T20:06:18.822Z,-8.96
2022-12-03T20:08:46.359Z,-9.02
2022-12-03T20:11:16.424Z,-9.01
2022-12-03T20:13:43.813Z,-9.06
2022-12-03T20:16:13.267Z,-9.08
2022-12-03T20:18:41.377Z,-9.06
2022-12-03T20:21:09.666Z,-8.92
2022-12-03T20:23:36.606Z,-9.02
2022-12-03T20:26:07.300Z,-9.04
2022-12-03T20:28:35.232Z,-9.03
2022-12-03T20:31:04.354Z,-9.03
2022-12-03T20:33:32.031Z,-9.14
2022-12-03T20:35:58.892Z,-9.04
2022-12-03T20:38:26.683Z,-9.19
2022-12-03T20:40:53.756Z,-9.06
2022-12-03T20:43:20.700Z,-9.08
2022-12-03T20:45:47.450Z,-8.96
2022-12-03T20:48:14.271Z,-9.07
2022-12-03T20:50:41.565Z,-9.14
2022-12-03T20:53:24.275Z,-9.10
2022-12-03T20:55:58.738Z,-9.24
2022-12-03T20:58:25.877Z,-9.14
2022-12-03T21:00:52.768Z,-9.06
2022-12-03T21:03:19.567Z,-9.03
2022-12-03T21:05:46.310Z,-9.13
2022-12-03T21:08:13.232Z,-9.15
2022-12-03T21:10:47.092Z,-9.17
2022-12-03T21:13:18.333Z,-9.26
2022-12-03T21:15:46.042Z,-9.10
2022-12-03T21:18:15.301Z,-9.13
2022-12-03T21:20:46.696Z,-9.21
2022-12-03T21:23:14.909Z,-9.16
2022-12-03T21:25:41.677Z,-9.27
2022-12-03T21:28:09.866Z,-9.18
2022-12-03T21:30:40.159Z,-9.12
2022-12-03T21:33:07.246Z,-9.13
2022-12-03T21:35:37.419Z,-9.12
2022-12-03T21:38:05.045Z,-9.23
2022-12-03T21:40:33.026Z,-9.16
2022-12-03T21:42:59.734Z,-9.21
2022-12-03T21:45:26.524Z,-9.15
2022-12-03T21:47:53.337Z,-9.20
2022-12-03T21:50:20.361Z,-9.18
2022-12-03T21:52:47.176Z,-9.13
2022-12-03T21:55:13.934Z,-9.26
2022-12-03T21:57:40.692Z,-9.20
2022-12-03T22:00:08.866Z,-9.31
2022-12-03T22:02:35.686Z,-9.15
2022-12-03T22:05:02.444Z,-9.14
2022-12-03T22:07:33.500Z,-9.17
2022-12-03T22:10:00.376Z,-9.15
2022-12-03T22:12:27.247Z,-9.12
2022-12-03T22:14:56.170Z,-9.22
2022-12-03T22:17:23.354Z,-9.26
2022-12-03T22:19:50.067Z,-9.20
2022-12-03T22:22:17.070Z,-9.15
2022-12-03T22:24:46.003Z,-9.21
2022-12-03T22:27:13.631Z,-9.31
2022-12-03T22:29:40.586Z,-9.28
2022-12-03T22:32:07.509Z,-9.23
2022-12-03T22:34:40.804Z,-9.14
2022-12-03T22:37:07.577Z,-9.28
2022-12-03T22:39:34.425Z,-9.37
2022-12-03T22:42:01.164Z,-9.31
2022-12-03T22:44:27.902Z,-9.39
2022-12-03T22:46:54.803Z,-9.44
2022-12-03T22:49:21.619Z,-9.45
2022-12-03T22:51:48.410Z,-9.47
2022-12-03T22:54:18.300Z,-9.34
2022-12-03T22:56:49.196Z,-9.45
2022-12-03T22:59:16.009Z,-9.38
2022-12-03T23:01:42.821Z,-9.59
2022-12-03T23:04:11.881Z,-9.41
2022-12-03T23:06:38.910Z,-9.58
2022-12-03T23:11:47.888Z,-9.59
2022-12-03T23:14:14.665Z,-9.63
2022-12-03T23:16:45.505Z,-9.79
2022-12-03T23:19:12.613Z,-9.73
2022-12-03T23:21:39.404Z,-9.63
2022-12-03T23:24:06.751Z,-9.63
2022-12-03T23:26:36.173Z,-9.68
2022-12-03T23:29:03.977Z,-9.88
2022-12-03T23:31:32.944Z,-10.12
2022-12-03T23:34:00.009Z,-10.06
2022-12-03T23:36:29.053Z,-9.96
2022-12-03T23:38:55.651Z,-9.99
2022-12-03T23:41:23.675Z,-10.09
2022-12-03T23:43:50.650Z,-10.19
2022-12-03T23:46:22.831Z,-10.25
2022-12-03T23:48:50.048Z,-10.37
2022-12-03T23:51:19.415Z,-10.28
2022-12-03T23:53:46.333Z,-10.36
2022-12-03T23:56:16.072Z,-10.30
2022-12-03T23:58:43.259Z,-10.61
